Willow Wood, Ohio
Current Conditions -  °F | °C
As of 1:51 PM on Friday 28 Nov 2014 (Local Time) from KHTS Reporting Station
Light Rain Light Rain  
Wind Chill: 28°   Ceiling: Unl
Heat Index: 34°   Visibility: 10mi
Dew Point: 18°   Wind: 7mph
Humidity: 52%   Direction: 180°S
Pressure: 30.3"   Gusts: NA
Location:  38.56°N, 82.47°W
Report Text: KHTS 281851Z 18006KT 10SM -RA FEW036 01/M08 A3030 RMK AO2 UPE05RAB05E06B48 SLP267 P0002 T00111078
Loading
Personal Weather Stations






























Interactive Weather Map New forecast layout! Learn more

10-Day Weather Forecast

Advertisements
Track Severe Weather on mobile